Terminal Aerodrome Forecast
Issued by NWS Binghamton, NY

Home | Current Version | Previous Version | Text Only | Print | Product List | Glossary On
Versions: 1 2 3 4 5 6 7 8 9 10 11 12 13 14 15 16 17 18 19 20 21 22 23
000
FTUS41 KBGM 201100
TAFBGM
TAF
KBGM 201123Z 2012/2112 18005KT P6SM FEW060 BKN250
      TEMPO 2012/2015 BKN018
     FM201500 20006KT P6SM BKN050
      TEMPO 2018/2022 4SM -SHRA BR
     FM202200 18006KT 5SM -SHRA BR BKN050 OVC100
      TEMPO 2108/2112 BKN010=

USA.gov is the U.S. government's official web portal to all federal, state and local government web resources and services.